HTKJ

Kilimanjaro International Airport

Arusha, Tanzania
METAR HTKJ 171200Z 09010KT 9999 FEW034CB SCT036 32/16 Q1013 NOSIG
Observed Flight Rules
Dec-17 @ 12:00 UTC (3 hours ago) Visual Flight Rules
Wind Visibility Clouds
90° at 10 knots 10,000+ meters
  • Few at 3,400' AGL
  • Scattered at 3,600' AGL
Temperatures Readings
Current 32°C / 90°F
Dewpoint 16°C / 61°F
Humidity 38%
Altimeter 29.91" Hg
Pressure 1013 hPa
Elevation 896
METAR HTKJ 171200Z 09010KT 9999 FEW034CB SCT036 32/16 Q1013 NOSIG
Observed Flight Rules
Dec-17 @ 12:00 UTC
(3 hours ago)
VFR
Wind Visibility
90° at 10 knots 10,000+ meters
Clouds
  • Few at 3,400' AGL
  • Scattered at 3,600' AGL
Temperature Dewpoint
32°C / 90°F 16°C / 61°F
Humidity Altimeter Pressure
38% 29.91" Hg 1013 hPa